sensor_id;sensor_type;location;lat;lon;timestamp;P1;durP1;ratioP1;P2;durP2;ratioP2
1400;SDS011;46518;48.842;8.926;2024-03-02T00:02:07;15.32;;;10.45;;
1400;SDS011;46518;48.842;8.926;2024-03-02T00:04:36;12.07;;;9.88;;
1400;SDS011;46518;48.842;8.926;2024-03-02T00:07:05;16.67;;;12.18;;
1400;SDS011;46518;48.842;8.926;2024-03-02T00:09:36;14.73;;;11.00;;
1400;SDS011;46518;48.842;8.926;2024-03-02T00:12:08;15.20;;;9.98;;
1400;SDS011;46518;48.842;8.926;2024-03-02T00:14:42;13.07;;;9.95;;
1400;SDS011;46518;48.842;8.926;2024-03-02T00:17:17;13.98;;;9.55;;
1400;SDS011;46518;48.842;8.926;2024-03-02T00:19:53;12.88;;;9.73;;
1400;SDS011;46518;48.842;8.926;2024-03-02T00:22:23;13.63;;;10.68;;
1400;SDS011;46518;48.842;8.926;2024-03-02T00:24:51;18.05;;;11.45;;
1400;SDS011;46518;48.842;8.926;2024-03-02T00:27:20;14.55;;;11.88;;
1400;SDS011;46518;48.842;8.926;2024-03-02T00:30:13;17.45;;;11.68;;
1400;SDS011;46518;48.842;8.926;2024-03-02T00:33:13;15.82;;;11.98;;
1400;SDS011;46518;48.842;8.926;2024-03-02T00:35:44;18.60;;;12.05;;
1400;SDS011;46518;48.842;8.926;2024-03-02T00:38:15;21.17;;;11.85;;
1400;SDS011;46518;48.842;8.926;2024-03-02T00:40:45;13.00;;;10.63;;
1400;SDS011;46518;48.842;8.926;2024-03-02T00:46:15;14.70;;;10.55;;
1400;SDS011;46518;48.842;8.926;2024-03-02T00:48:53;15.50;;;11.07;;
1400;SDS011;46518;48.842;8.926;2024-03-02T00:51:24;15.73;;;10.52;;
1400;SDS011;46518;48.842;8.926;2024-03-02T00:54:04;17.75;;;11.70;;
1400;SDS011;46518;48.842;8.926;2024-03-02T00:56:34;16.25;;;10.85;;
1400;SDS011;46518;48.842;8.926;2024-03-02T00:59:06;15.77;;;11.25;;
1400;SDS011;46518;48.842;8.926;2024-03-02T01:01:37;16.00;;;11.57;;
1400;SDS011;46518;48.842;8.926;2024-03-02T01:04:07;19.95;;;11.52;;
1400;SDS011;46518;48.842;8.926;2024-03-02T01:06:37;14.95;;;11.05;;
1400;SDS011;46518;48.842;8.926;2024-03-02T01:09:08;18.63;;;12.63;;
1400;SDS011;46518;48.842;8.926;2024-03-02T01:11:38;19.30;;;11.13;;
1400;SDS011;46518;48.842;8.926;2024-03-02T01:14:07;18.30;;;12.48;;
1400;SDS011;46518;48.842;8.926;2024-03-02T01:16:37;16.65;;;11.00;;
1400;SDS011;46518;48.842;8.926;2024-03-02T01:19:07;17.70;;;12.38;;
1400;SDS011;46518;48.842;8.926;2024-03-02T01:21:37;23.95;;;15.57;;
1400;SDS011;46518;48.842;8.926;2024-03-02T01:24:06;18.85;;;12.70;;
1400;SDS011;46518;48.842;8.926;2024-03-02T01:26:38;16.58;;;12.30;;
1400;SDS011;46518;48.842;8.926;2024-03-02T01:29:10;17.30;;;11.55;;
1400;SDS011;46518;48.842;8.926;2024-03-02T01:31:39;16.58;;;12.98;;
1400;SDS011;46518;48.842;8.926;2024-03-02T01:34:09;16.58;;;11.73;;
1400;SDS011;46518;48.842;8.926;2024-03-02T01:36:43;18.73;;;13.35;;
1400;SDS011;46518;48.842;8.926;2024-03-02T01:39:12;20.17;;;13.63;;
1400;SDS011;46518;48.842;8.926;2024-03-02T01:41:45;20.95;;;13.90;;
1400;SDS011;46518;48.842;8.926;2024-03-02T01:44:16;16.60;;;11.77;;
1400;SDS011;46518;48.842;8.926;2024-03-02T01:46:48;19.15;;;13.05;;
1400;SDS011;46518;48.842;8.926;2024-03-02T01:49:19;18.30;;;10.85;;
1400;SDS011;46518;48.842;8.926;2024-03-02T01:51:52;22.13;;;13.50;;
1400;SDS011;46518;48.842;8.926;2024-03-02T01:54:25;20.55;;;13.40;;
1400;SDS011;46518;48.842;8.926;2024-03-02T01:56:58;18.60;;;13.18;;
1400;SDS011;46518;48.842;8.926;2024-03-02T01:59:29;20.35;;;13.60;;
1400;SDS011;46518;48.842;8.926;2024-03-02T02:02:01;18.08;;;13.70;;
1400;SDS011;46518;48.842;8.926;2024-03-02T02:04:31;20.80;;;14.45;;
1400;SDS011;46518;48.842;8.926;2024-03-02T02:07:02;20.15;;;13.73;;
1400;SDS011;46518;48.842;8.926;2024-03-02T02:09:36;18.02;;;13.70;;
1400;SDS011;46518;48.842;8.926;2024-03-02T02:12:08;24.75;;;15.40;;
1400;SDS011;46518;48.842;8.926;2024-03-02T02:14:46;21.13;;;12.25;;
1400;SDS011;46518;48.842;8.926;2024-03-02T02:17:18;21.08;;;15.32;;
1400;SDS011;46518;48.842;8.926;2024-03-02T02:19:48;22.05;;;13.75;;
1400;SDS011;46518;48.842;8.926;2024-03-02T02:22:19;23.05;;;16.23;;
1400;SDS011;46518;48.842;8.926;2024-03-02T02:24:50;21.08;;;13.75;;
1400;SDS011;46518;48.842;8.926;2024-03-02T02:27:21;23.50;;;15.75;;
1400;SDS011;46518;48.842;8.926;2024-03-02T02:29:51;22.52;;;14.18;;
1400;SDS011;46518;48.842;8.926;2024-03-02T02:32:21;21.83;;;14.77;;
1400;SDS011;46518;48.842;8.926;2024-03-02T02:34:52;21.50;;;15.02;;
1400;SDS011;46518;48.842;8.926;2024-03-02T02:37:23;22.25;;;15.10;;
1400;SDS011;46518;48.842;8.926;2024-03-02T02:39:55;19.05;;;13.73;;
1400;SDS011;46518;48.842;8.926;2024-03-02T02:42:27;22.67;;;15.02;;
1400;SDS011;46518;48.842;8.926;2024-03-02T02:44:57;23.73;;;13.90;;
1400;SDS011;46518;48.842;8.926;2024-03-02T02:47:29;25.63;;;15.07;;
1400;SDS011;46518;48.842;8.926;2024-03-02T02:50:02;23.98;;;15.70;;
1400;SDS011;46518;48.842;8.926;2024-03-02T02:52:35;18.05;;;14.40;;
1400;SDS011;46518;48.842;8.926;2024-03-02T02:55:08;27.02;;;16.92;;
1400;SDS011;46518;48.842;8.926;2024-03-02T02:57:39;25.13;;;15.95;;
1400;SDS011;46518;48.842;8.926;2024-03-02T03:00:12;22.40;;;15.80;;
1400;SDS011;46518;48.842;8.926;2024-03-02T03:02:45;23.73;;;16.23;;
1400;SDS011;46518;48.842;8.926;2024-03-02T03:05:18;23.00;;;15.95;;
1400;SDS011;46518;48.842;8.926;2024-03-02T03:07:48;24.67;;;15.52;;
1400;SDS011;46518;48.842;8.926;2024-03-02T03:10:20;26.98;;;16.88;;
1400;SDS011;46518;48.842;8.926;2024-03-02T03:12:52;23.77;;;14.55;;
1400;SDS011;46518;48.842;8.926;2024-03-02T03:15:25;24.27;;;15.32;;
1400;SDS011;46518;48.842;8.926;2024-03-02T03:17:56;23.25;;;16.67;;
1400;SDS011;46518;48.842;8.926;2024-03-02T03:20:28;22.60;;;15.77;;
1400;SDS011;46518;48.842;8.926;2024-03-02T03:22:59;22.90;;;15.95;;
1400;SDS011;46518;48.842;8.926;2024-03-02T03:25:29;24.85;;;16.08;;
1400;SDS011;46518;48.842;8.926;2024-03-02T03:27:59;22.98;;;15.15;;
1400;SDS011;46518;48.842;8.926;2024-03-02T03:30:32;26.00;;;16.15;;
1400;SDS011;46518;48.842;8.926;2024-03-02T03:33:03;25.63;;;16.08;;
1400;SDS011;46518;48.842;8.926;2024-03-02T03:35:36;24.17;;;16.23;;
1400;SDS011;46518;48.842;8.926;2024-03-02T03:38:07;25.75;;;17.27;;
1400;SDS011;46518;48.842;8.926;2024-03-02T03:40:38;26.77;;;16.67;;
1400;SDS011;46518;48.842;8.926;2024-03-02T03:43:09;25.77;;;18.02;;
1400;SDS011;46518;48.842;8.926;2024-03-02T03:45:39;25.52;;;15.85;;
1400;SDS011;46518;48.842;8.926;2024-03-02T03:48:10;27.00;;;16.73;;
1400;SDS011;46518;48.842;8.926;2024-03-02T03:50:44;27.50;;;18.63;;
1400;SDS011;46518;48.842;8.926;2024-03-02T03:53:16;28.85;;;16.92;;
1400;SDS011;46518;48.842;8.926;2024-03-02T03:55:47;31.55;;;18.45;;
1400;SDS011;46518;48.842;8.926;2024-03-02T03:58:20;26.33;;;17.05;;
1400;SDS011;46518;48.842;8.926;2024-03-02T04:00:53;27.00;;;17.20;;
1400;SDS011;46518;48.842;8.926;2024-03-02T04:03:24;25.63;;;17.25;;
1400;SDS011;46518;48.842;8.926;2024-03-02T04:05:56;27.60;;;16.60;;
1400;SDS011;46518;48.842;8.926;2024-03-02T04:08:30;25.38;;;15.10;;
1400;SDS011;46518;48.842;8.926;2024-03-02T04:11:09;25.50;;;15.18;;
1400;SDS011;46518;48.842;8.926;2024-03-02T04:13:52;32.05;;;18.88;;
1400;SDS011;46518;48.842;8.926;2024-03-02T04:16:26;27.25;;;17.85;;
1400;SDS011;46518;48.842;8.926;2024-03-02T04:18:58;30.50;;;17.95;;
1400;SDS011;46518;48.842;8.926;2024-03-02T04:21:30;27.73;;;17.88;;
1400;SDS011;46518;48.842;8.926;2024-03-02T04:24:06;32.28;;;18.40;;
1400;SDS011;46518;48.842;8.926;2024-03-02T04:26:41;27.27;;;17.17;;
1400;SDS011;46518;48.842;8.926;2024-03-02T04:29:15;28.10;;;17.52;;
1400;SDS011;46518;48.842;8.926;2024-03-02T04:31:48;26.45;;;17.40;;
1400;SDS011;46518;48.842;8.926;2024-03-02T04:34:21;28.83;;;17.00;;
1400;SDS011;46518;48.842;8.926;2024-03-02T04:36:53;28.60;;;18.45;;
1400;SDS011;46518;48.842;8.926;2024-03-02T04:39:28;30.65;;;17.40;;
1400;SDS011;46518;48.842;8.926;2024-03-02T04:42:00;28.85;;;17.08;;
1400;SDS011;46518;48.842;8.926;2024-03-02T04:44:34;26.73;;;16.75;;
1400;SDS011;46518;48.842;8.926;2024-03-02T04:47:07;24.52;;;15.10;;
1400;SDS011;46518;48.842;8.926;2024-03-02T04:49:43;28.45;;;17.15;;
1400;SDS011;46518;48.842;8.926;2024-03-02T04:52:21;28.00;;;17.00;;
1400;SDS011;46518;48.842;8.926;2024-03-02T04:54:55;34.83;;;17.75;;
1400;SDS011;46518;48.842;8.926;2024-03-02T04:57:45;29.85;;;19.75;;
1400;SDS011;46518;48.842;8.926;2024-03-02T05:00:20;32.70;;;19.23;;
1400;SDS011;46518;48.842;8.926;2024-03-02T05:02:53;30.08;;;19.35;;
1400;SDS011;46518;48.842;8.926;2024-03-02T05:05:24;31.13;;;17.92;;
1400;SDS011;46518;48.842;8.926;2024-03-02T05:07:56;27.23;;;16.70;;
1400;SDS011;46518;48.842;8.926;2024-03-02T05:10:30;33.67;;;19.55;;
1400;SDS011;46518;48.842;8.926;2024-03-02T05:13:02;30.02;;;17.98;;
1400;SDS011;46518;48.842;8.926;2024-03-02T05:15:36;31.02;;;17.13;;
1400;SDS011;46518;48.842;8.926;2024-03-02T05:18:08;31.20;;;17.45;;
1400;SDS011;46518;48.842;8.926;2024-03-02T05:20:41;28.90;;;18.55;;
1400;SDS011;46518;48.842;8.926;2024-03-02T05:23:12;34.55;;;18.23;;
1400;SDS011;46518;48.842;8.926;2024-03-02T05:25:45;31.20;;;17.77;;
1400;SDS011;46518;48.842;8.926;2024-03-02T05:28:17;29.13;;;19.67;;
1400;SDS011;46518;48.842;8.926;2024-03-02T05:30:48;26.67;;;17.75;;
1400;SDS011;46518;48.842;8.926;2024-03-02T05:33:21;29.70;;;17.40;;
1400;SDS011;46518;48.842;8.926;2024-03-02T05:35:52;31.15;;;16.48;;
1400;SDS011;46518;48.842;8.926;2024-03-02T05:38:22;31.33;;;19.25;;
1400;SDS011;46518;48.842;8.926;2024-03-02T05:40:52;27.80;;;18.20;;
1400;SDS011;46518;48.842;8.926;2024-03-02T05:43:21;25.42;;;17.02;;
1400;SDS011;46518;48.842;8.926;2024-03-02T05:45:49;23.75;;;15.82;;
1400;SDS011;46518;48.842;8.926;2024-03-02T05:48:19;22.95;;;15.13;;
1400;SDS011;46518;48.842;8.926;2024-03-02T05:50:48;25.92;;;16.45;;
1400;SDS011;46518;48.842;8.926;2024-03-02T05:53:16;24.35;;;16.10;;
1400;SDS011;46518;48.842;8.926;2024-03-02T05:55:45;24.38;;;14.55;;
1400;SDS011;46518;48.842;8.926;2024-03-02T05:58:15;25.40;;;15.70;;
1400;SDS011;46518;48.842;8.926;2024-03-02T06:00:55;25.42;;;15.57;;
1400;SDS011;46518;48.842;8.926;2024-03-02T06:03:24;26.10;;;14.43;;
1400;SDS011;46518;48.842;8.926;2024-03-02T06:05:53;20.65;;;14.65;;
1400;SDS011;46518;48.842;8.926;2024-03-02T06:08:22;20.77;;;13.35;;
1400;SDS011;46518;48.842;8.926;2024-03-02T06:10:50;20.52;;;13.32;;
1400;SDS011;46518;48.842;8.926;2024-03-02T06:13:21;25.70;;;15.57;;
1400;SDS011;46518;48.842;8.926;2024-03-02T06:15:49;21.85;;;14.60;;
1400;SDS011;46518;48.842;8.926;2024-03-02T06:18:18;26.75;;;17.38;;
1400;SDS011;46518;48.842;8.926;2024-03-02T06:20:46;24.92;;;15.48;;
1400;SDS011;46518;48.842;8.926;2024-03-02T06:23:16;21.02;;;14.60;;
1400;SDS011;46518;48.842;8.926;2024-03-02T06:25:44;21.30;;;14.18;;
1400;SDS011;46518;48.842;8.926;2024-03-02T06:28:13;23.48;;;15.82;;
1400;SDS011;46518;48.842;8.926;2024-03-02T06:30:59;26.67;;;14.05;;
1400;SDS011;46518;48.842;8.926;2024-03-02T06:33:31;20.20;;;13.50;;
1400;SDS011;46518;48.842;8.926;2024-03-02T06:35:59;20.40;;;16.02;;
1400;SDS011;46518;48.842;8.926;2024-03-02T06:38:28;22.90;;;15.60;;
1400;SDS011;46518;48.842;8.926;2024-03-02T06:40:58;24.50;;;13.95;;
1400;SDS011;46518;48.842;8.926;2024-03-02T06:43:27;20.40;;;14.63;;
1400;SDS011;46518;48.842;8.926;2024-03-02T06:45:57;20.55;;;13.52;;
1400;SDS011;46518;48.842;8.926;2024-03-02T06:48:26;22.98;;;14.25;;
1400;SDS011;46518;48.842;8.926;2024-03-02T06:50:55;21.80;;;13.85;;
1400;SDS011;46518;48.842;8.926;2024-03-02T06:53:26;18.98;;;12.50;;
1400;SDS011;46518;48.842;8.926;2024-03-02T06:55:55;17.45;;;11.95;;
1400;SDS011;46518;48.842;8.926;2024-03-02T06:58:23;22.40;;;14.50;;
1400;SDS011;46518;48.842;8.926;2024-03-02T07:00:52;21.65;;;12.75;;
1400;SDS011;46518;48.842;8.926;2024-03-02T07:03:22;18.73;;;12.25;;
1400;SDS011;46518;48.842;8.926;2024-03-02T07:05:51;18.38;;;12.20;;
1400;SDS011;46518;48.842;8.926;2024-03-02T07:08:19;18.13;;;12.45;;
1400;SDS011;46518;48.842;8.926;2024-03-02T07:10:48;15.98;;;11.35;;
1400;SDS011;46518;48.842;8.926;2024-03-02T07:13:17;21.58;;;14.57;;
1400;SDS011;46518;48.842;8.926;2024-03-02T07:15:45;17.60;;;11.05;;
1400;SDS011;46518;48.842;8.926;2024-03-02T07:18:39;20.08;;;13.05;;
1400;SDS011;46518;48.842;8.926;2024-03-02T07:21:11;16.90;;;12.02;;
1400;SDS011;46518;48.842;8.926;2024-03-02T07:23:40;18.13;;;12.95;;
1400;SDS011;46518;48.842;8.926;2024-03-02T07:26:08;16.95;;;10.75;;
1400;SDS011;46518;48.842;8.926;2024-03-02T07:28:40;15.55;;;12.25;;
1400;SDS011;46518;48.842;8.926;2024-03-02T07:31:08;18.17;;;12.10;;
1400;SDS011;46518;48.842;8.926;2024-03-02T07:33:36;21.17;;;13.50;;
1400;SDS011;46518;48.842;8.926;2024-03-02T07:36:06;19.02;;;13.60;;
1400;SDS011;46518;48.842;8.926;2024-03-02T07:38:35;21.70;;;13.18;;
1400;SDS011;46518;48.842;8.926;2024-03-02T07:41:03;19.55;;;14.00;;
1400;SDS011;46518;48.842;8.926;2024-03-02T07:43:32;18.25;;;13.00;;
1400;SDS011;46518;48.842;8.926;2024-03-02T07:46:01;24.17;;;15.65;;
1400;SDS011;46518;48.842;8.926;2024-03-02T07:48:29;21.02;;;13.07;;
1400;SDS011;46518;48.842;8.926;2024-03-02T07:50:58;19.92;;;13.90;;
1400;SDS011;46518;48.842;8.926;2024-03-02T07:53:28;22.90;;;14.52;;
1400;SDS011;46518;48.842;8.926;2024-03-02T07:55:56;21.15;;;13.85;;
1400;SDS011;46518;48.842;8.926;2024-03-02T07:58:29;20.15;;;12.38;;
1400;SDS011;46518;48.842;8.926;2024-03-02T08:01:00;18.60;;;12.70;;
1400;SDS011;46518;48.842;8.926;2024-03-02T08:03:29;20.33;;;13.68;;
1400;SDS011;46518;48.842;8.926;2024-03-02T08:05:59;17.73;;;12.90;;
1400;SDS011;46518;48.842;8.926;2024-03-02T08:08:29;22.40;;;14.50;;
1400;SDS011;46518;48.842;8.926;2024-03-02T08:10:57;19.45;;;13.68;;
1400;SDS011;46518;48.842;8.926;2024-03-02T08:13:27;23.67;;;14.63;;
1400;SDS011;46518;48.842;8.926;2024-03-02T08:15:59;18.02;;;14.63;;
1400;SDS011;46518;48.842;8.926;2024-03-02T08:18:33;21.70;;;13.57;;
1400;SDS011;46518;48.842;8.926;2024-03-02T08:21:05;18.83;;;13.32;;
1400;SDS011;46518;48.842;8.926;2024-03-02T08:23:36;22.83;;;14.98;;
1400;SDS011;46518;48.842;8.926;2024-03-02T08:26:07;18.80;;;13.07;;
1400;SDS011;46518;48.842;8.926;2024-03-02T08:28:40;17.83;;;12.65;;
1400;SDS011;46518;48.842;8.926;2024-03-02T08:31:09;18.13;;;12.57;;
1400;SDS011;46518;48.842;8.926;2024-03-02T08:33:39;20.73;;;12.30;;
1400;SDS011;46518;48.842;8.926;2024-03-02T08:36:09;19.83;;;14.27;;
1400;SDS011;46518;48.842;8.926;2024-03-02T08:38:41;15.95;;;10.82;;
1400;SDS011;46518;48.842;8.926;2024-03-02T08:41:11;17.20;;;12.13;;
1400;SDS011;46518;48.842;8.926;2024-03-02T08:43:43;16.13;;;10.80;;
1400;SDS011;46518;48.842;8.926;2024-03-02T08:46:11;16.00;;;11.20;;
1400;SDS011;46518;48.842;8.926;2024-03-02T08:48:40;16.33;;;11.35;;
1400;SDS011;46518;48.842;8.926;2024-03-02T08:51:08;15.95;;;12.40;;
1400;SDS011;46518;48.842;8.926;2024-03-02T08:53:37;16.67;;;12.07;;
1400;SDS011;46518;48.842;8.926;2024-03-02T08:56:06;16.23;;;11.05;;
1400;SDS011;46518;48.842;8.926;2024-03-02T08:58:35;13.85;;;10.57;;
1400;SDS011;46518;48.842;8.926;2024-03-02T09:01:03;17.95;;;11.85;;
1400;SDS011;46518;48.842;8.926;2024-03-02T09:03:33;17.90;;;12.23;;
1400;SDS011;46518;48.842;8.926;2024-03-02T09:06:02;17.77;;;11.43;;
1400;SDS011;46518;48.842;8.926;2024-03-02T09:08:31;13.80;;;11.10;;
1400;SDS011;46518;48.842;8.926;2024-03-02T09:10:59;19.02;;;13.05;;
1400;SDS011;46518;48.842;8.926;2024-03-02T09:13:29;12.95;;;11.00;;
1400;SDS011;46518;48.842;8.926;2024-03-02T09:15:57;16.63;;;11.23;;
1400;SDS011;46518;48.842;8.926;2024-03-02T09:18:26;14.55;;;10.63;;
1400;SDS011;46518;48.842;8.926;2024-03-02T09:20:54;13.27;;;9.52;;
1400;SDS011;46518;48.842;8.926;2024-03-02T09:23:23;10.90;;;9.13;;
1400;SDS011;46518;48.842;8.926;2024-03-02T09:25:51;12.90;;;9.88;;
1400;SDS011;46518;48.842;8.926;2024-03-02T09:28:20;13.68;;;10.35;;
1400;SDS011;46518;48.842;8.926;2024-03-02T09:30:49;13.15;;;10.63;;
1400;SDS011;46518;48.842;8.926;2024-03-02T09:33:18;10.32;;;8.15;;
1400;SDS011;46518;48.842;8.926;2024-03-02T09:35:46;11.38;;;7.22;;
1400;SDS011;46518;48.842;8.926;2024-03-02T09:38:20;9.80;;;7.30;;
1400;SDS011;46518;48.842;8.926;2024-03-02T09:40:49;11.38;;;6.75;;
1400;SDS011;46518;48.842;8.926;2024-03-02T09:43:19;6.90;;;6.05;;
1400;SDS011;46518;48.842;8.926;2024-03-02T09:45:50;9.00;;;6.90;;
1400;SDS011;46518;48.842;8.926;2024-03-02T09:48:20;8.73;;;5.80;;
1400;SDS011;46518;48.842;8.926;2024-03-02T09:50:48;6.65;;;5.45;;
1400;SDS011;46518;48.842;8.926;2024-03-02T09:53:17;7.15;;;5.20;;
1400;SDS011;46518;48.842;8.926;2024-03-02T09:55:46;8.63;;;6.28;;
1400;SDS011;46518;48.842;8.926;2024-03-02T09:58:15;6.57;;;5.20;;
1400;SDS011;46518;48.842;8.926;2024-03-02T10:00:45;7.88;;;6.05;;
1400;SDS011;46518;48.842;8.926;2024-03-02T10:03:19;7.70;;;5.70;;
1400;SDS011;46518;48.842;8.926;2024-03-02T10:08:55;6.50;;;4.90;;
1400;SDS011;46518;48.842;8.926;2024-03-02T10:11:30;6.47;;;5.88;;
1400;SDS011;46518;48.842;8.926;2024-03-02T10:14:06;6.90;;;5.38;;
1400;SDS011;46518;48.842;8.926;2024-03-02T10:16:39;8.35;;;6.07;;
1400;SDS011;46518;48.842;8.926;2024-03-02T10:19:18;7.93;;;6.03;;
1400;SDS011;46518;48.842;8.926;2024-03-02T10:21:52;7.45;;;6.18;;
1400;SDS011;46518;48.842;8.926;2024-03-02T10:24:27;6.95;;;5.65;;
1400;SDS011;46518;48.842;8.926;2024-03-02T10:26:58;6.00;;;4.95;;
1400;SDS011;46518;48.842;8.926;2024-03-02T10:29:29;6.70;;;5.97;;
1400;SDS011;46518;48.842;8.926;2024-03-02T10:32:02;6.65;;;5.10;;
1400;SDS011;46518;48.842;8.926;2024-03-02T10:34:37;5.40;;;4.78;;
1400;SDS011;46518;48.842;8.926;2024-03-02T10:37:10;6.45;;;4.65;;
1400;SDS011;46518;48.842;8.926;2024-03-02T10:39:40;5.10;;;4.28;;
1400;SDS011;46518;48.842;8.926;2024-03-02T10:42:10;4.93;;;4.40;;
1400;SDS011;46518;48.842;8.926;2024-03-02T10:44:43;5.18;;;4.65;;
1400;SDS011;46518;48.842;8.926;2024-03-02T10:47:14;6.95;;;4.30;;
1400;SDS011;46518;48.842;8.926;2024-03-02T10:49:50;3.50;;;3.15;;
1400;SDS011;46518;48.842;8.926;2024-03-02T10:52:21;4.38;;;3.70;;
1400;SDS011;46518;48.842;8.926;2024-03-02T10:54:52;4.45;;;3.30;;
1400;SDS011;46518;48.842;8.926;2024-03-02T10:57:22;3.95;;;2.72;;
1400;SDS011;46518;48.842;8.926;2024-03-02T10:59:56;4.18;;;2.60;;
1400;SDS011;46518;48.842;8.926;2024-03-02T11:02:30;3.25;;;2.95;;
1400;SDS011;46518;48.842;8.926;2024-03-02T11:05:03;3.00;;;2.50;;
1400;SDS011;46518;48.842;8.926;2024-03-02T11:07:35;2.38;;;2.17;;
1400;SDS011;46518;48.842;8.926;2024-03-02T11:10:06;5.88;;;2.60;;
1400;SDS011;46518;48.842;8.926;2024-03-02T11:12:38;2.15;;;1.92;;
1400;SDS011;46518;48.842;8.926;2024-03-02T11:15:11;1.95;;;1.80;;
1400;SDS011;46518;48.842;8.926;2024-03-02T11:17:45;2.85;;;1.65;;
1400;SDS011;46518;48.842;8.926;2024-03-02T11:20:16;1.50;;;0.95;;
1400;SDS011;46518;48.842;8.926;2024-03-02T11:22:48;1.52;;;1.33;;
1400;SDS011;46518;48.842;8.926;2024-03-02T11:25:22;1.17;;;1.08;;
1400;SDS011;46518;48.842;8.926;2024-03-02T11:28:01;1.40;;;1.20;;
1400;SDS011;46518;48.842;8.926;2024-03-02T11:30:49;2.10;;;1.30;;
1400;SDS011;46518;48.842;8.926;2024-03-02T11:33:24;1.30;;;1.20;;
1400;SDS011;46518;48.842;8.926;2024-03-02T11:36:00;2.08;;;1.20;;
1400;SDS011;46518;48.842;8.926;2024-03-02T11:38:34;2.30;;;1.55;;
1400;SDS011;46518;48.842;8.926;2024-03-02T11:41:06;1.60;;;1.20;;
1400;SDS011;46518;48.842;8.926;2024-03-02T11:43:43;1.38;;;1.27;;
1400;SDS011;46518;48.842;8.926;2024-03-02T11:46:18;2.58;;;1.27;;
1400;SDS011;46518;48.842;8.926;2024-03-02T11:48:52;1.17;;;1.00;;
1400;SDS011;46518;48.842;8.926;2024-03-02T11:51:24;0.80;;;0.80;;
1400;SDS011;46518;48.842;8.926;2024-03-02T11:53:53;1.85;;;1.10;;
1400;SDS011;46518;48.842;8.926;2024-03-02T11:56:32;1.10;;;0.90;;
1400;SDS011;46518;48.842;8.926;2024-03-02T11:59:04;0.93;;;0.80;;
1400;SDS011;46518;48.842;8.926;2024-03-02T12:01:35;1.20;;;0.90;;
1400;SDS011;46518;48.842;8.926;2024-03-02T12:04:06;1.10;;;1.00;;
1400;SDS011;46518;48.842;8.926;2024-03-02T12:06:38;1.50;;;1.02;;
1400;SDS011;46518;48.842;8.926;2024-03-02T12:09:09;0.93;;;0.90;;
1400;SDS011;46518;48.842;8.926;2024-03-02T12:11:39;1.30;;;0.80;;
1400;SDS011;46518;48.842;8.926;2024-03-02T12:14:11;1.17;;;0.70;;
1400;SDS011;46518;48.842;8.926;2024-03-02T12:16:43;1.10;;;0.90;;
1400;SDS011;46518;48.842;8.926;2024-03-02T12:19:13;0.80;;;0.80;;
1400;SDS011;46518;48.842;8.926;2024-03-02T12:21:46;1.52;;;1.00;;
1400;SDS011;46518;48.842;8.926;2024-03-02T12:24:15;0.80;;;0.70;;
1400;SDS011;46518;48.842;8.926;2024-03-02T12:26:44;1.40;;;0.90;;
1400;SDS011;46518;48.842;8.926;2024-03-02T12:29:13;1.15;;;1.00;;
1400;SDS011;46518;48.842;8.926;2024-03-02T12:31:43;0.73;;;0.70;;
1400;SDS011;46518;48.842;8.926;2024-03-02T12:34:12;1.33;;;0.80;;
1400;SDS011;46518;48.842;8.926;2024-03-02T12:36:42;0.90;;;0.80;;
1400;SDS011;46518;48.842;8.926;2024-03-02T12:39:15;0.70;;;0.70;;
1400;SDS011;46518;48.842;8.926;2024-03-02T12:41:46;0.90;;;0.80;;
1400;SDS011;46518;48.842;8.926;2024-03-02T12:44:18;2.10;;;0.90;;
1400;SDS011;46518;48.842;8.926;2024-03-02T12:46:50;0.80;;;0.80;;
1400;SDS011;46518;48.842;8.926;2024-03-02T12:49:29;1.02;;;0.90;;
1400;SDS011;46518;48.842;8.926;2024-03-02T12:51:59;0.80;;;0.70;;
1400;SDS011;46518;48.842;8.926;2024-03-02T12:54:29;1.10;;;1.00;;
1400;SDS011;46518;48.842;8.926;2024-03-02T12:56:58;1.00;;;0.80;;
1400;SDS011;46518;48.842;8.926;2024-03-02T12:59:28;1.90;;;0.98;;
1400;SDS011;46518;48.842;8.926;2024-03-02T13:01:58;1.02;;;0.88;;
1400;SDS011;46518;48.842;8.926;2024-03-02T13:04:28;1.35;;;0.80;;
1400;SDS011;46518;48.842;8.926;2024-03-02T13:06:57;0.80;;;0.68;;
1400;SDS011;46518;48.842;8.926;2024-03-02T13:09:26;1.23;;;0.80;;
1400;SDS011;46518;48.842;8.926;2024-03-02T13:11:56;0.85;;;0.80;;
1400;SDS011;46518;48.842;8.926;2024-03-02T13:14:26;1.10;;;1.00;;
1400;SDS011;46518;48.842;8.926;2024-03-02T13:16:54;1.15;;;0.98;;
1400;SDS011;46518;48.842;8.926;2024-03-02T13:19:27;1.17;;;0.85;;
1400;SDS011;46518;48.842;8.926;2024-03-02T13:21:57;1.80;;;1.38;;
1400;SDS011;46518;48.842;8.926;2024-03-02T13:24:26;1.10;;;0.70;;
1400;SDS011;46518;48.842;8.926;2024-03-02T13:26:57;1.38;;;0.93;;
1400;SDS011;46518;48.842;8.926;2024-03-02T13:29:26;0.98;;;0.85;;
1400;SDS011;46518;48.842;8.926;2024-03-02T13:31:55;1.00;;;0.95;;
1400;SDS011;46518;48.842;8.926;2024-03-02T13:34:25;1.02;;;0.90;;
1400;SDS011;46518;48.842;8.926;2024-03-02T13:36:53;1.38;;;0.88;;
1400;SDS011;46518;48.842;8.926;2024-03-02T13:39:22;1.23;;;0.68;;
1400;SDS011;46518;48.842;8.926;2024-03-02T13:42:00;1.70;;;1.15;;
1400;SDS011;46518;48.842;8.926;2024-03-02T13:44:33;0.95;;;0.85;;
1400;SDS011;46518;48.842;8.926;2024-03-02T13:47:04;2.42;;;1.00;;
1400;SDS011;46518;48.842;8.926;2024-03-02T13:49:36;1.15;;;0.90;;
1400;SDS011;46518;48.842;8.926;2024-03-02T13:52:11;1.20;;;0.80;;
1400;SDS011;46518;48.842;8.926;2024-03-02T13:54:41;0.80;;;0.70;;
1400;SDS011;46518;48.842;8.926;2024-03-02T13:57:12;0.70;;;0.70;;
1400;SDS011;46518;48.842;8.926;2024-03-02T13:59:41;1.50;;;0.68;;
1400;SDS011;46518;48.842;8.926;2024-03-02T14:02:10;0.95;;;0.82;;
1400;SDS011;46518;48.842;8.926;2024-03-02T14:04:40;0.90;;;0.73;;
1400;SDS011;46518;48.842;8.926;2024-03-02T14:07:13;1.40;;;1.25;;
1400;SDS011;46518;48.842;8.926;2024-03-02T14:09:45;1.00;;;0.90;;
1400;SDS011;46518;48.842;8.926;2024-03-02T14:12:18;1.15;;;1.02;;
1400;SDS011;46518;48.842;8.926;2024-03-02T14:14:52;1.40;;;1.30;;
1400;SDS011;46518;48.842;8.926;2024-03-02T14:17:26;1.52;;;0.90;;
1400;SDS011;46518;48.842;8.926;2024-03-02T14:19:57;1.27;;;1.17;;
1400;SDS011;46518;48.842;8.926;2024-03-02T14:22:26;0.88;;;0.82;;
1400;SDS011;46518;48.842;8.926;2024-03-02T14:24:57;1.10;;;0.80;;
1400;SDS011;46518;48.842;8.926;2024-03-02T14:27:32;1.23;;;0.98;;
1400;SDS011;46518;48.842;8.926;2024-03-02T14:30:25;1.05;;;0.98;;
1400;SDS011;46518;48.842;8.926;2024-03-02T14:32:57;1.00;;;0.90;;
1400;SDS011;46518;48.842;8.926;2024-03-02T14:35:28;1.15;;;0.98;;
1400;SDS011;46518;48.842;8.926;2024-03-02T14:37:56;2.08;;;1.00;;
1400;SDS011;46518;48.842;8.926;2024-03-02T14:40:25;1.75;;;1.25;;
1400;SDS011;46518;48.842;8.926;2024-03-02T14:42:55;1.13;;;0.82;;
1400;SDS011;46518;48.842;8.926;2024-03-02T14:45:23;1.00;;;0.90;;
1400;SDS011;46518;48.842;8.926;2024-03-02T14:47:51;1.60;;;1.20;;
1400;SDS011;46518;48.842;8.926;2024-03-02T14:50:20;1.67;;;1.15;;
1400;SDS011;46518;48.842;8.926;2024-03-02T14:52:48;1.20;;;1.10;;
1400;SDS011;46518;48.842;8.926;2024-03-02T14:55:17;1.30;;;1.20;;
1400;SDS011;46518;48.842;8.926;2024-03-02T14:57:45;1.58;;;0.68;;
1400;SDS011;46518;48.842;8.926;2024-03-02T15:00:15;1.10;;;0.90;;
1400;SDS011;46518;48.842;8.926;2024-03-02T15:02:44;1.27;;;1.00;;
1400;SDS011;46518;48.842;8.926;2024-03-02T15:05:12;1.83;;;0.90;;
1400;SDS011;46518;48.842;8.926;2024-03-02T15:07:41;1.20;;;1.10;;
1400;SDS011;46518;48.842;8.926;2024-03-02T15:10:09;1.27;;;1.10;;
1400;SDS011;46518;48.842;8.926;2024-03-02T15:12:37;1.42;;;1.33;;
1400;SDS011;46518;48.842;8.926;2024-03-02T15:15:06;1.20;;;1.10;;
1400;SDS011;46518;48.842;8.926;2024-03-02T15:17:38;1.50;;;1.30;;